Gaz Unity — HOEJ — position and weather

sailwx.info

Track history (hours):
 
Tides and Currents Weather Stations Pressure Air Temp Water Temp Dewpoint Dewpoint Depression Visibility Wind Speed Wind Dir Waves Ship Positions

Gaz Unity

Last reported at 2015-Mar-26 03:31 UTC. Time now 2015-Mar-28 04:01 UTC.
Position N 35°29' E 014°55'.

Length 228 m; draft 9.5 m.

Type: Ship (hazmat cat C). MMSI: 353956000.

Date/timePositionNaut miles runAvg speedWind from/ knotsBaromVisibWave heightAir tempDewpointWater temp
2015-Mar-26 03:31N 35°29' E 014°55'1 1.2
2015-Mar-26 02:18N 35°28' E 014°57'1 1.2
2015-Mar-26 01:33N 35°28' E 014°58'1 1.1
2015-Mar-26 00:33N 35°28' E 014°59'1 1.1
2015-Mar-25 23:34N 35°28' E 015°00'1 1.1
2015-Mar-25 22:33N 35°28' E 015°02'1 1.1
2015-Mar-25 21:33N 35°27' E 015°03'1 1.1
2015-Mar-25 20:29N 35°27' E 015°04'1 1.0
2015-Mar-25 19:33N 35°27' E 015°06'1 1.0
2015-Mar-25 18:30N 35°27' E 015°07'1 1.0
2015-Mar-25 17:26N 35°28' E 015°08'7 0.2
2015-Mar-24 06:22N 35°34' E 015°03'8 6.4
2015-Mar-24 05:08N 35°38' E 014°55'1 0.7
2015-Mar-24 04:05N 35°37' E 014°55'0 0.6
2015-Mar-24 03:32N 35°37' E 014°56'3 0.5
2015-Mar-23 21:33N 35°36' E 014°59'1 0.5
2015-Mar-23 20:33N 35°36' E 014°59'1 0.5
2015-Mar-23 19:34N 35°37' E 014°59'1 0.7
2015-Mar-23 18:33N 35°38' E 014°59'9 0.4
2015-Mar-22 18:07N 35°44' E 014°51'0 0.0
2015-Mar-22 17:19N 35°44' E 014°51'0 0.0
2015-Mar-22 13:07N 35°44' E 014°51'  
Track history (hours):
 
Tides and Currents Weather Stations Pressure Air Temp Water Temp Dewpoint Dewpoint Depression Visibility Wind Speed Wind Dir Waves Ship Positions

Gaz Unity

Last reported at 2015-Mar-26 03:31 UTC. Time now 2015-Mar-28 04:01 UTC.
Position N 35°29' E 014°55'.

Length 228 m; draft 9.5 m.

Type: Ship (hazmat cat C). MMSI: 353956000.

Date/timePositionNaut miles runAvg speedWind from/ knotsBaromVisibWave heightAir tempDewpointWater temp
2015-Mar-26 03:31N 35°29' E 014°55'1 1.2
2015-Mar-26 02:18N 35°28' E 014°57'1 1.2
2015-Mar-26 01:33N 35°28' E 014°58'1 1.1
2015-Mar-26 00:33N 35°28' E 014°59'1 1.1
2015-Mar-25 23:34N 35°28' E 015°00'1 1.1
2015-Mar-25 22:33N 35°28' E 015°02'1 1.1
2015-Mar-25 21:33N 35°27' E 015°03'1 1.1
2015-Mar-25 20:29N 35°27' E 015°04'1 1.0
2015-Mar-25 19:33N 35°27' E 015°06'1 1.0
2015-Mar-25 18:30N 35°27' E 015°07'1 1.0
2015-Mar-25 17:26N 35°28' E 015°08'7 0.2
2015-Mar-24 06:22N 35°34' E 015°03'8 6.4
2015-Mar-24 05:08N 35°38' E 014°55'1 0.7
2015-Mar-24 04:05N 35°37' E 014°55'0 0.6
2015-Mar-24 03:32N 35°37' E 014°56'3 0.5
2015-Mar-23 21:33N 35°36' E 014°59'1 0.5
2015-Mar-23 20:33N 35°36' E 014°59'1 0.5
2015-Mar-23 19:34N 35°37' E 014°59'1 0.7
2015-Mar-23 18:33N 35°38' E 014°59'9 0.4
2015-Mar-22 18:07N 35°44' E 014°51'0 0.0
2015-Mar-22 17:19N 35°44' E 014°51'0 0.0
2015-Mar-22 13:07N 35°44' E 014°51'  

Dump ship's entire track history